createdAt,value
2018-05-15T00:00:46.134Z,15.22
2018-05-15T00:01:46.112Z,15.21
2018-05-15T00:02:46.059Z,15.18
2018-05-15T00:03:46.121Z,15.21
2018-05-15T00:04:46.102Z,15.19
2018-05-15T00:05:46.447Z,15.21
2018-05-15T00:06:46.031Z,15.19
2018-05-15T00:07:46.081Z,15.21
2018-05-15T00:08:46.134Z,15.2
2018-05-15T00:09:46.125Z,15.23
2018-05-15T00:10:46.097Z,15.24
2018-05-15T00:11:46.120Z,15.23
2018-05-15T00:12:46.134Z,15.24
2018-05-15T00:13:46.089Z,15.27
2018-05-15T00:14:46.066Z,15.27
2018-05-15T00:15:46.076Z,15.26
2018-05-15T00:16:46.077Z,15.26
2018-05-15T00:17:46.084Z,15.27
2018-05-15T00:18:46.099Z,15.27
2018-05-15T00:19:46.070Z,15.24
2018-05-15T00:20:46.040Z,15.24
2018-05-15T00:21:46.276Z,15.23
2018-05-15T00:22:46.148Z,15.23
2018-05-15T00:23:46.140Z,15.24
2018-05-15T00:24:46.177Z,15.24
2018-05-15T00:25:46.073Z,15.24
2018-05-15T00:26:46.112Z,15.24
2018-05-15T00:27:46.109Z,15.26
2018-05-15T00:28:46.104Z,15.28
2018-05-15T00:29:46.107Z,15.28
2018-05-15T00:30:46.095Z,15.28
2018-05-15T00:31:46.088Z,15.3
2018-05-15T00:32:46.154Z,15.31
2018-05-15T00:33:46.119Z,15.31
2018-05-15T00:34:46.161Z,15.33
2018-05-15T00:35:46.153Z,15.35
2018-05-15T00:36:46.118Z,15.36
2018-05-15T00:37:46.069Z,15.36
2018-05-15T00:38:46.229Z,15.34
2018-05-15T00:39:46.148Z,15.34
2018-05-15T00:40:46.110Z,15.33
2018-05-15T00:41:46.153Z,15.3
2018-05-15T00:42:46.115Z,15.3
2018-05-15T00:43:46.107Z,15.31
2018-05-15T00:44:46.210Z,15.31
2018-05-15T00:45:46.124Z,15.33
2018-05-15T00:46:46.489Z,15.32
2018-05-15T00:47:46.158Z,15.34
2018-05-15T00:48:46.109Z,15.33
2018-05-15T00:49:46.127Z,15.33
2018-05-15T00:50:46.104Z,15.33
2018-05-15T00:51:46.138Z,15.31
2018-05-15T00:52:46.122Z,15.34
2018-05-15T00:53:46.133Z,15.34
2018-05-15T00:54:46.142Z,15.34
2018-05-15T00:55:46.101Z,15.34
2018-05-15T00:56:46.319Z,15.33
2018-05-15T00:57:46.198Z,15.29
2018-05-15T00:58:46.170Z,15.3
2018-05-15T00:59:46.241Z,15.3
2018-05-15T01:00:46.115Z,15.33
2018-05-15T01:01:46.279Z,15.33
2018-05-15T01:02:46.125Z,15.3
2018-05-15T01:03:46.176Z,15.33
2018-05-15T01:04:46.110Z,15.31
2018-05-15T01:05:46.111Z,15.33
2018-05-15T01:06:46.161Z,15.27
2018-05-15T01:07:46.136Z,15.2
2018-05-15T01:08:46.111Z,15.22
2018-05-15T01:09:46.824Z,15.21
2018-05-15T01:10:46.105Z,15.23
2018-05-15T01:11:46.084Z,15.23
2018-05-15T01:12:46.094Z,15.22
2018-05-15T01:13:46.151Z,15.23
2018-05-15T01:14:46.112Z,15.24
2018-05-15T01:15:46.135Z,15.27
2018-05-15T01:16:46.126Z,15.24
2018-05-15T01:17:46.211Z,15.24
2018-05-15T01:18:46.076Z,15.22
2018-05-15T01:19:46.113Z,15.24
2018-05-15T01:20:46.118Z,15.24
2018-05-15T01:21:46.051Z,15.26
2018-05-15T01:22:46.096Z,15.27
2018-05-15T01:23:46.051Z,15.28
2018-05-15T01:24:46.107Z,15.26
2018-05-15T01:25:46.173Z,15.28
2018-05-15T01:26:46.087Z,15.27
2018-05-15T01:27:46.119Z,15.29
2018-05-15T01:28:46.228Z,15.29
2018-05-15T01:29:46.164Z,15.29
2018-05-15T01:30:46.283Z,15.31
2018-05-15T01:31:46.129Z,15.3
2018-05-15T01:32:46.083Z,15.3
2018-05-15T01:33:46.163Z,15.34
2018-05-15T01:34:46.267Z,15.32
2018-05-15T01:35:46.183Z,15.35
2018-05-15T01:36:46.093Z,15.34
2018-05-15T01:37:46.152Z,15.34
2018-05-15T01:38:46.133Z,15.34
2018-05-15T01:39:46.109Z,15.35
2018-05-15T01:40:46.130Z,15.34
2018-05-15T01:41:46.229Z,15.36
2018-05-15T01:42:46.085Z,15.35
2018-05-15T01:43:46.128Z,15.35
2018-05-15T01:44:46.179Z,15.35
2018-05-15T01:45:46.140Z,15.35
2018-05-15T01:46:46.205Z,15.35
2018-05-15T01:47:46.107Z,15.35
2018-05-15T01:48:46.147Z,15.35
2018-05-15T01:49:46.111Z,15.35
2018-05-15T01:50:46.138Z,15.36
2018-05-15T01:51:46.181Z,15.36
2018-05-15T01:52:46.262Z,15.37
2018-05-15T01:53:46.165Z,15.39
2018-05-15T01:54:46.192Z,15.37
2018-05-15T01:55:46.136Z,15.4
2018-05-15T01:56:46.088Z,15.38
2018-05-15T01:57:46.103Z,15.41
2018-05-15T01:58:46.129Z,15.41
2018-05-15T01:59:46.164Z,15.41
2018-05-15T02:00:46.122Z,15.41
2018-05-15T02:01:46.158Z,15.41
2018-05-15T02:02:46.265Z,15.42
2018-05-15T02:03:46.244Z,15.42
2018-05-15T02:04:46.135Z,15.42
2018-05-15T02:05:46.120Z,15.42
2018-05-15T02:06:46.157Z,15.41
2018-05-15T02:07:46.138Z,15.43
2018-05-15T02:08:46.179Z,15.4
2018-05-15T02:09:46.150Z,15.43
2018-05-15T02:10:46.113Z,15.42
2018-05-15T02:11:46.158Z,15.4
2018-05-15T02:12:46.131Z,15.38
2018-05-15T02:13:46.146Z,15.38
2018-05-15T02:14:46.118Z,15.36
2018-05-15T02:15:46.144Z,15.4
2018-05-15T02:16:46.166Z,15.41
2018-05-15T02:17:46.125Z,15.41
2018-05-15T02:18:46.146Z,15.41
2018-05-15T02:19:46.141Z,15.4
2018-05-15T02:20:46.301Z,15.41
2018-05-15T02:21:46.115Z,15.4
2018-05-15T02:22:46.092Z,15.38
2018-05-15T02:23:46.161Z,15.39
2018-05-15T02:24:46.132Z,15.37
2018-05-15T02:25:46.128Z,15.4
2018-05-15T02:26:46.134Z,15.39
2018-05-15T02:27:46.135Z,15.38
2018-05-15T02:28:46.103Z,15.36
2018-05-15T02:29:46.259Z,15.36
2018-05-15T02:30:46.171Z,15.38
2018-05-15T02:31:46.153Z,15.36
2018-05-15T02:32:46.167Z,15.36
2018-05-15T02:33:46.166Z,15.39
2018-05-15T02:34:46.148Z,15.37
2018-05-15T02:35:46.172Z,15.4
2018-05-15T02:36:46.254Z,15.39
2018-05-15T02:37:46.104Z,15.39
2018-05-15T02:38:46.217Z,15.35
2018-05-15T02:39:46.142Z,15.36
2018-05-15T02:40:46.190Z,15.35
2018-05-15T02:41:46.317Z,15.36
2018-05-15T02:42:46.274Z,15.34
2018-05-15T02:43:46.193Z,15.33
2018-05-15T02:44:46.195Z,15.32
2018-05-15T02:45:46.149Z,15.32
2018-05-15T02:46:46.214Z,15.31
2018-05-15T02:47:46.153Z,15.32
2018-05-15T02:48:46.203Z,15.24
2018-05-15T02:49:46.171Z,15.21
2018-05-15T02:50:46.886Z,15.22
2018-05-15T02:51:46.147Z,15.2
2018-05-15T02:52:46.126Z,15.17
2018-05-15T02:53:46.884Z,15.16
2018-05-15T02:54:46.929Z,15.16
2018-05-15T02:55:46.925Z,15.18
2018-05-15T02:56:46.901Z,15.17
2018-05-15T02:57:46.825Z,15.17
2018-05-15T02:58:47.002Z,15.2
2018-05-15T02:59:46.181Z,15.18
2018-05-15T03:00:46.182Z,15.17
2018-05-15T03:01:46.879Z,15.18
2018-05-15T03:02:46.154Z,15.18
2018-05-15T03:03:46.185Z,15.2
2018-05-15T03:04:46.865Z,15.17
2018-05-15T03:05:46.158Z,15.17
2018-05-15T03:06:46.157Z,15.17
2018-05-15T03:07:46.949Z,15.15
2018-05-15T03:08:46.159Z,15.12
2018-05-15T03:09:46.918Z,15.1
2018-05-15T03:10:46.172Z,15.1
2018-05-15T03:11:47.519Z,15.11
2018-05-15T03:12:46.173Z,15.06
2018-05-15T03:13:46.928Z,15.07
2018-05-15T03:14:46.189Z,15.09
2018-05-15T03:15:46.884Z,15.09
2018-05-15T03:16:46.150Z,15.07
2018-05-15T03:17:46.119Z,15.09
2018-05-15T03:18:46.162Z,15.09
2018-05-15T03:19:46.153Z,15.1
2018-05-15T03:20:46.883Z,15.09
2018-05-15T03:21:46.201Z,15.09
2018-05-15T03:22:46.181Z,15.09
2018-05-15T03:23:46.215Z,15.08
2018-05-15T03:24:46.183Z,15.07
2018-05-15T03:25:46.847Z,15.07
2018-05-15T03:26:46.111Z,15.04
2018-05-15T03:27:46.145Z,15.03
2018-05-15T03:28:46.185Z,15
2018-05-15T03:29:46.175Z,14.98
2018-05-15T03:30:46.173Z,14.97
2018-05-15T03:31:46.180Z,14.94
2018-05-15T03:32:46.155Z,14.92
2018-05-15T03:33:46.149Z,14.94
2018-05-15T03:34:46.183Z,14.92
2018-05-15T03:35:46.134Z,14.9
2018-05-15T03:36:46.181Z,14.86
2018-05-15T03:37:46.996Z,14.84
2018-05-15T03:38:46.175Z,14.83
2018-05-15T03:39:46.172Z,14.81
2018-05-15T03:40:46.223Z,14.79
2018-05-15T03:41:47.447Z,14.77
2018-05-15T03:42:46.163Z,14.77
2018-05-15T03:43:46.172Z,14.78
2018-05-15T03:44:46.211Z,14.78
2018-05-15T03:45:46.936Z,14.79
2018-05-15T03:46:46.938Z,14.79
2018-05-15T03:47:46.953Z,14.79
2018-05-15T03:48:46.234Z,14.79
2018-05-15T03:49:46.927Z,14.79
2018-05-15T03:50:46.164Z,14.79
2018-05-15T03:51:46.195Z,14.79
2018-05-15T03:52:46.223Z,14.75
2018-05-15T03:53:46.215Z,14.76
2018-05-15T03:54:46.189Z,14.77
2018-05-15T03:55:46.218Z,14.77
2018-05-15T03:56:46.177Z,14.75
2018-05-15T03:57:46.172Z,14.78
2018-05-15T03:58:46.193Z,14.72
2018-05-15T03:59:46.208Z,14.63
2018-05-15T04:00:46.213Z,14.6
2018-05-15T04:01:46.240Z,14.62
2018-05-15T04:02:46.321Z,14.61
2018-05-15T04:03:46.193Z,14.61
2018-05-15T04:04:46.182Z,14.59
2018-05-15T04:05:46.176Z,14.5
2018-05-15T04:06:46.256Z,14.51
2018-05-15T04:07:46.189Z,14.51
2018-05-15T04:08:47.420Z,14.54
2018-05-15T04:09:46.203Z,14.54
2018-05-15T04:10:46.763Z,14.54
2018-05-15T04:11:46.248Z,14.55
2018-05-15T04:12:46.217Z,14.55
2018-05-15T04:13:46.203Z,14.54
2018-05-15T04:14:46.283Z,14.51
2018-05-15T04:15:46.351Z,14.54
2018-05-15T04:16:46.261Z,14.54
2018-05-15T04:17:46.222Z,14.56
2018-05-15T04:18:46.228Z,14.56
2018-05-15T04:19:46.259Z,14.54
2018-05-15T04:20:46.188Z,14.54
2018-05-15T04:21:46.328Z,14.53
2018-05-15T04:22:46.180Z,14.53
2018-05-15T04:23:46.479Z,14.49
2018-05-15T04:24:46.180Z,14.53
2018-05-15T04:25:46.230Z,14.54
2018-05-15T04:26:46.209Z,14.55
2018-05-15T04:27:46.204Z,14.55
2018-05-15T04:28:46.209Z,14.53
2018-05-15T04:29:46.188Z,14.5
2018-05-15T04:30:46.200Z,14.52
2018-05-15T04:31:46.220Z,14.53
2018-05-15T04:32:46.324Z,14.54
2018-05-15T04:33:46.236Z,14.53
2018-05-15T04:34:46.202Z,14.54
2018-05-15T04:35:46.252Z,14.55
2018-05-15T04:36:46.169Z,14.56
2018-05-15T04:37:46.201Z,14.59
2018-05-15T04:38:46.664Z,14.59
2018-05-15T04:39:46.159Z,14.57
2018-05-15T04:40:46.233Z,14.55
2018-05-15T04:41:46.198Z,14.54
2018-05-15T04:42:46.247Z,14.56
2018-05-15T04:43:49.735Z,14.56
2018-05-15T04:44:46.213Z,14.59
2018-05-15T04:45:46.204Z,14.6
2018-05-15T04:46:46.169Z,14.57
2018-05-15T04:47:46.237Z,14.61
2018-05-15T04:48:46.195Z,14.61
2018-05-15T04:49:46.222Z,14.65
2018-05-15T04:50:46.219Z,14.65
2018-05-15T04:51:46.208Z,14.65
2018-05-15T04:52:46.239Z,14.67
2018-05-15T04:53:46.762Z,14.68
2018-05-15T04:54:46.196Z,14.68
2018-05-15T04:55:47.079Z,14.71
2018-05-15T04:56:46.187Z,14.68
2018-05-15T04:57:46.256Z,14.67
2018-05-15T04:58:46.189Z,14.67
2018-05-15T04:59:46.217Z,14.69
2018-05-15T05:00:46.186Z,14.69
2018-05-15T05:01:46.159Z,14.68
2018-05-15T05:02:48.370Z,14.68
2018-05-15T05:03:46.198Z,14.7
2018-05-15T05:04:46.215Z,14.68
2018-05-15T05:05:46.184Z,14.69
2018-05-15T05:06:46.196Z,14.68
2018-05-15T05:07:46.301Z,14.72
2018-05-15T05:08:46.232Z,14.71
2018-05-15T05:09:46.258Z,14.73
2018-05-15T05:10:46.562Z,14.72
2018-05-15T05:11:47.194Z,14.73
2018-05-15T05:12:46.403Z,14.73
2018-05-15T05:13:46.227Z,14.74
2018-05-15T05:14:46.585Z,14.76
2018-05-15T05:15:46.190Z,14.76
2018-05-15T05:16:46.238Z,14.75
2018-05-15T05:17:46.407Z,14.78
2018-05-15T05:18:46.178Z,14.78
2018-05-15T05:19:46.247Z,14.75
2018-05-15T05:20:46.232Z,14.7
2018-05-15T05:21:46.202Z,14.72
2018-05-15T05:22:46.549Z,14.7
2018-05-15T05:23:46.644Z,14.72
2018-05-15T05:24:46.264Z,14.7
2018-05-15T05:25:46.249Z,14.7
2018-05-15T05:26:46.286Z,14.66
2018-05-15T05:27:46.317Z,14.66
2018-05-15T05:28:46.236Z,14.66
2018-05-15T05:29:46.258Z,14.61
2018-05-15T05:30:46.294Z,14.61
2018-05-15T05:31:46.505Z,14.65
2018-05-15T05:32:46.262Z,14.66
2018-05-15T05:33:46.253Z,14.67
2018-05-15T05:34:46.356Z,14.71
2018-05-15T05:35:46.257Z,14.71
2018-05-15T05:36:46.260Z,14.72
2018-05-15T05:37:46.210Z,14.71
2018-05-15T05:38:46.287Z,14.7
2018-05-15T05:39:46.211Z,14.71
2018-05-15T05:40:46.258Z,14.68
2018-05-15T05:41:46.229Z,14.67
2018-05-15T05:42:46.214Z,14.69
2018-05-15T05:43:46.219Z,14.69
2018-05-15T05:44:46.237Z,14.7
2018-05-15T05:45:46.233Z,14.65
2018-05-15T05:46:46.237Z,14.68
2018-05-15T05:47:46.237Z,14.65
2018-05-15T05:48:46.236Z,14.65
2018-05-15T05:49:46.226Z,14.62
2018-05-15T05:50:46.231Z,14.56
2018-05-15T05:51:46.254Z,14.59
2018-05-15T05:52:46.256Z,14.57
2018-05-15T05:53:46.252Z,14.6
2018-05-15T05:54:46.289Z,14.55
2018-05-15T05:55:46.253Z,14.51
2018-05-15T05:56:46.256Z,14.5
2018-05-15T05:57:46.229Z,14.53
2018-05-15T05:58:46.282Z,14.53
2018-05-15T05:59:46.379Z,14.56
2018-05-15T06:00:46.244Z,14.56
2018-05-15T06:01:46.292Z,14.61
2018-05-15T06:02:46.260Z,14.62
2018-05-15T06:03:46.250Z,14.67
2018-05-15T06:04:46.335Z,14.67
2018-05-15T06:05:46.273Z,14.71
2018-05-15T06:06:46.260Z,14.7
2018-05-15T06:07:46.228Z,14.73
2018-05-15T06:08:46.239Z,14.76
2018-05-15T06:09:46.296Z,14.78
2018-05-15T06:10:46.338Z,14.72
2018-05-15T06:11:46.249Z,14.71
2018-05-15T06:12:46.204Z,14.73
2018-05-15T06:13:46.216Z,14.76
2018-05-15T06:14:46.292Z,14.7
2018-05-15T06:15:46.214Z,14.69
2018-05-15T06:16:46.362Z,14.63
2018-05-15T06:17:46.233Z,14.64
2018-05-15T06:18:46.374Z,14.66
2018-05-15T06:19:46.296Z,14.68
2018-05-15T06:20:47.270Z,14.7
2018-05-15T06:21:46.333Z,14.7
2018-05-15T06:22:46.222Z,14.72
2018-05-15T06:23:46.236Z,14.71
2018-05-15T06:24:46.298Z,14.7
2018-05-15T06:25:46.267Z,14.68
2018-05-15T06:26:47.251Z,14.62
2018-05-15T06:27:46.432Z,14.56
2018-05-15T06:28:46.231Z,14.55
2018-05-15T06:29:46.218Z,14.5
2018-05-15T06:30:46.279Z,14.5
2018-05-15T06:31:46.273Z,14.5
2018-05-15T06:32:46.329Z,14.54
2018-05-15T06:33:46.312Z,14.55
2018-05-15T06:34:46.378Z,14.51
2018-05-15T06:35:46.316Z,14.54
2018-05-15T06:36:46.361Z,14.54
2018-05-15T06:37:46.350Z,14.56
2018-05-15T06:38:46.293Z,14.56
2018-05-15T06:39:46.342Z,14.57
2018-05-15T06:40:46.366Z,14.57
2018-05-15T06:41:46.298Z,14.51
2018-05-15T06:42:46.326Z,14.51
2018-05-15T06:43:46.389Z,14.5
2018-05-15T06:44:47.397Z,14.5
2018-05-15T06:45:46.327Z,14.54
2018-05-15T06:46:46.313Z,14.51
2018-05-15T06:47:49.231Z,14.5
2018-05-15T06:48:46.543Z,14.5
2018-05-15T06:49:46.335Z,14.51
2018-05-15T06:50:46.347Z,14.53
2018-05-15T06:51:46.401Z,14.54
2018-05-15T06:52:46.392Z,14.57
2018-05-15T06:53:46.422Z,14.6
2018-05-15T06:54:46.400Z,14.56
2018-05-15T06:55:46.413Z,14.55
2018-05-15T06:56:46.433Z,14.56
2018-05-15T06:57:46.405Z,14.54
2018-05-15T06:58:46.403Z,14.56
2018-05-15T06:59:46.469Z,14.58
2018-05-15T07:00:46.535Z,14.62
2018-05-15T07:01:47.234Z,14.64
2018-05-15T07:02:46.505Z,14.65
2018-05-15T07:03:46.395Z,14.66
2018-05-15T07:04:46.532Z,14.65
2018-05-15T07:05:46.435Z,14.65
2018-05-15T07:06:46.412Z,14.66
2018-05-15T07:07:47.631Z,14.68
2018-05-15T07:08:46.419Z,14.67
2018-05-15T07:09:46.466Z,14.66
2018-05-15T07:10:46.453Z,14.67
2018-05-15T07:11:46.447Z,14.64
2018-05-15T07:12:46.456Z,14.63
2018-05-15T07:13:46.492Z,14.6
2018-05-15T07:14:46.473Z,14.63
2018-05-15T07:15:46.755Z,14.65
2018-05-15T07:16:46.496Z,14.64
2018-05-15T07:17:46.746Z,14.67
2018-05-15T07:18:46.420Z,14.7
2018-05-15T07:19:46.883Z,14.72
2018-05-15T07:20:46.451Z,14.77
2018-05-15T07:21:46.441Z,14.8
2018-05-15T07:22:46.465Z,14.83
2018-05-15T07:23:46.429Z,14.88
2018-05-15T07:24:46.407Z,14.87
2018-05-15T07:25:46.479Z,14.89
2018-05-15T07:26:46.522Z,14.88
2018-05-15T07:27:46.468Z,14.91
2018-05-15T07:28:46.407Z,14.94
2018-05-15T07:29:46.408Z,14.96
2018-05-15T07:30:46.425Z,15.01
2018-05-15T07:31:46.409Z,15.03
2018-05-15T07:32:46.391Z,15.07
2018-05-15T07:33:46.439Z,15.13
2018-05-15T07:34:46.438Z,15.16
2018-05-15T07:35:46.490Z,15.2
2018-05-15T07:36:46.415Z,15.2
2018-05-15T07:37:46.480Z,15.21
2018-05-15T07:38:46.403Z,15.24
2018-05-15T07:39:46.472Z,15.21
2018-05-15T07:40:46.375Z,15.21
2018-05-15T07:41:46.450Z,15.24
2018-05-15T07:42:46.420Z,15.28
2018-05-15T07:43:46.398Z,15.33
2018-05-15T07:44:46.400Z,15.36
2018-05-15T07:45:46.453Z,15.39
2018-05-15T07:46:46.482Z,15.42
2018-05-15T07:47:46.435Z,15.48
2018-05-15T07:48:46.605Z,15.47
2018-05-15T07:49:46.476Z,15.52
2018-05-15T07:50:46.401Z,15.54
2018-05-15T07:51:46.421Z,15.59
2018-05-15T07:52:46.489Z,15.63
2018-05-15T07:53:47.677Z,15.66
2018-05-15T07:54:46.257Z,15.68
2018-05-15T07:55:46.416Z,15.7
2018-05-15T07:56:46.529Z,15.7
2018-05-15T07:57:46.279Z,15.72
2018-05-15T07:58:46.433Z,15.75
2018-05-15T07:59:46.508Z,15.74
2018-05-15T08:00:46.291Z,15.77
2018-05-15T08:01:46.500Z,15.74
2018-05-15T08:02:46.457Z,15.78
2018-05-15T08:03:46.279Z,15.78
2018-05-15T08:04:46.647Z,15.8
2018-05-15T08:05:46.314Z,15.84
2018-05-15T08:06:46.617Z,15.86
2018-05-15T08:07:46.718Z,15.9
2018-05-15T08:08:46.492Z,15.96
2018-05-15T08:09:46.331Z,15.97
2018-05-15T08:10:46.304Z,16
2018-05-15T08:11:46.596Z,16.02
2018-05-15T08:12:46.333Z,16.05
2018-05-15T08:13:46.609Z,16.08
2018-05-15T08:14:46.293Z,16.08
2018-05-15T08:15:46.341Z,16.08
2018-05-15T08:16:46.275Z,16.09
2018-05-15T08:17:46.289Z,16.1
2018-05-15T08:18:46.288Z,16.12
2018-05-15T08:19:46.315Z,16.12
2018-05-15T08:20:46.343Z,16.14
2018-05-15T08:21:46.386Z,16.22
2018-05-15T08:22:46.279Z,16.24
2018-05-15T08:23:46.295Z,16.28
2018-05-15T08:24:46.268Z,16.28
2018-05-15T08:25:46.283Z,16.32
2018-05-15T08:26:47.278Z,16.32
2018-05-15T08:27:46.338Z,16.33
2018-05-15T08:28:46.626Z,16.33
2018-05-15T08:29:46.285Z,16.38
2018-05-15T08:30:47.137Z,16.39
2018-05-15T08:31:46.306Z,16.4
2018-05-15T08:32:46.338Z,16.42
2018-05-15T08:33:46.320Z,16.44
2018-05-15T08:34:46.358Z,16.52
2018-05-15T08:35:46.290Z,16.57
2018-05-15T08:36:46.303Z,16.65
2018-05-15T08:37:46.346Z,16.67
2018-05-15T08:38:46.292Z,16.71
2018-05-15T08:39:46.290Z,16.77
2018-05-15T08:40:46.342Z,16.82
2018-05-15T08:41:46.351Z,16.77
2018-05-15T08:42:46.448Z,16.82
2018-05-15T08:43:46.406Z,16.8
2018-05-15T08:44:46.354Z,16.83
2018-05-15T08:45:46.416Z,16.86
2018-05-15T08:46:46.341Z,16.93
2018-05-15T08:47:47.242Z,16.91
2018-05-15T08:48:46.457Z,16.98
2018-05-15T08:49:46.411Z,17
2018-05-15T08:50:46.415Z,17.06
2018-05-15T08:51:46.428Z,17.09
2018-05-15T08:52:46.396Z,17.07
2018-05-15T08:53:46.380Z,17.12
2018-05-15T08:54:46.333Z,17.21
2018-05-15T08:55:46.361Z,17.23
2018-05-15T08:56:46.358Z,17.28
2018-05-15T08:57:46.391Z,17.24
2018-05-15T08:58:46.463Z,17.25
2018-05-15T08:59:46.392Z,17.25
2018-05-15T09:00:46.579Z,17.37
2018-05-15T09:01:46.366Z,17.38
2018-05-15T09:02:46.383Z,17.36
2018-05-15T09:03:46.398Z,17.39
2018-05-15T09:04:46.394Z,17.38
2018-05-15T09:05:46.365Z,17.41
2018-05-15T09:06:46.382Z,17.48
2018-05-15T09:07:46.369Z,17.47
2018-05-15T09:08:46.396Z,17.47
2018-05-15T09:09:46.407Z,17.5
2018-05-15T09:10:46.422Z,17.52
2018-05-15T09:11:46.355Z,17.59
2018-05-15T09:12:46.402Z,17.65
2018-05-15T09:13:46.326Z,17.72
2018-05-15T09:14:46.406Z,17.7
2018-05-15T09:15:46.431Z,17.71
2018-05-15T09:16:46.458Z,17.72
2018-05-15T09:17:46.417Z,17.71
2018-05-15T09:18:46.500Z,17.78
2018-05-15T09:19:46.808Z,17.81
2018-05-15T09:20:46.385Z,17.86
2018-05-15T09:21:46.359Z,17.91
2018-05-15T09:22:46.393Z,17.92
2018-05-15T09:23:46.387Z,17.99
2018-05-15T09:24:46.858Z,17.94
2018-05-15T09:25:46.480Z,17.91
2018-05-15T09:26:46.398Z,17.95
2018-05-15T09:27:46.410Z,17.98
2018-05-15T09:28:46.407Z,18
2018-05-15T09:29:46.422Z,17.98
2018-05-15T09:30:46.490Z,17.92
2018-05-15T09:31:46.347Z,17.96
2018-05-15T09:32:46.464Z,18.05
2018-05-15T09:33:46.442Z,18.06
2018-05-15T09:34:46.363Z,18.1
2018-05-15T09:35:46.389Z,18.12
2018-05-15T09:36:46.387Z,18.15
2018-05-15T09:37:46.410Z,18.21
2018-05-15T09:38:46.604Z,18.26
2018-05-15T09:39:46.398Z,18.3
2018-05-15T09:40:46.392Z,18.3
2018-05-15T09:41:46.399Z,18.31
2018-05-15T09:42:46.438Z,18.34
2018-05-15T09:43:46.378Z,18.36
2018-05-15T09:44:46.629Z,18.31
2018-05-15T09:45:46.424Z,18.36
2018-05-15T09:46:46.357Z,18.47
2018-05-15T09:47:46.545Z,18.54
2018-05-15T09:48:46.401Z,18.67
2018-05-15T09:49:46.476Z,18.66
2018-05-15T09:50:46.427Z,18.67
2018-05-15T09:51:46.424Z,18.68
2018-05-15T09:52:46.433Z,18.74
2018-05-15T09:53:46.384Z,18.76
2018-05-15T09:54:46.459Z,18.76
2018-05-15T09:55:46.433Z,18.77
2018-05-15T09:56:46.379Z,18.78
2018-05-15T09:57:46.446Z,18.79
2018-05-15T09:58:46.458Z,18.74
2018-05-15T09:59:46.428Z,18.72
2018-05-15T10:00:46.452Z,18.71
2018-05-15T10:01:46.382Z,18.78
2018-05-15T10:02:46.476Z,18.71
2018-05-15T10:03:46.374Z,18.69
2018-05-15T10:04:46.375Z,18.7
2018-05-15T10:05:46.431Z,18.72
2018-05-15T10:06:46.372Z,18.71
2018-05-15T10:07:46.868Z,18.65
2018-05-15T10:08:46.761Z,18.67
2018-05-15T10:09:46.353Z,18.71
2018-05-15T10:10:46.437Z,18.73
2018-05-15T10:11:46.412Z,18.74
2018-05-15T10:12:46.363Z,18.78
2018-05-15T10:13:46.409Z,18.78
2018-05-15T10:14:46.371Z,18.88
2018-05-15T10:15:46.438Z,18.93
2018-05-15T10:16:46.441Z,18.93
2018-05-15T10:17:46.334Z,18.99
2018-05-15T10:18:46.383Z,19.02
2018-05-15T10:19:46.360Z,19.12
2018-05-15T10:20:46.382Z,19.19
2018-05-15T10:21:46.396Z,19.26
2018-05-15T10:22:46.408Z,19.47
2018-05-15T10:23:46.408Z,19.49
2018-05-15T10:24:46.420Z,19.47
2018-05-15T10:25:46.470Z,19.47
2018-05-15T10:26:46.447Z,19.46
2018-05-15T10:27:46.411Z,19.62
2018-05-15T10:28:46.438Z,19.45
2018-05-15T10:29:46.563Z,19.47
2018-05-15T10:30:46.365Z,19.46
2018-05-15T10:31:46.444Z,19.48
2018-05-15T10:32:46.450Z,19.56
2018-05-15T10:33:46.422Z,19.6
2018-05-15T10:34:46.406Z,19.65
2018-05-15T10:35:46.385Z,19.74
2018-05-15T10:36:46.501Z,19.73
2018-05-15T10:37:46.409Z,19.67
2018-05-15T10:38:46.373Z,19.69
2018-05-15T10:39:46.443Z,19.72
2018-05-15T10:40:46.608Z,19.76
2018-05-15T10:41:46.592Z,19.79
2018-05-15T10:42:46.447Z,19.86
2018-05-15T10:43:46.456Z,19.88
2018-05-15T10:44:46.446Z,19.88
2018-05-15T10:45:46.413Z,19.9
2018-05-15T10:46:46.429Z,19.83
2018-05-15T10:47:46.420Z,19.79
2018-05-15T10:48:46.409Z,19.77
2018-05-15T10:49:46.431Z,19.82
2018-05-15T10:50:46.941Z,19.86
2018-05-15T10:51:46.398Z,19.87
2018-05-15T10:52:46.386Z,19.87
2018-05-15T10:53:46.458Z,19.81
2018-05-15T10:54:46.367Z,19.73
2018-05-15T10:55:46.401Z,19.73
2018-05-15T10:56:46.407Z,19.76
2018-05-15T10:57:46.406Z,19.72
2018-05-15T10:58:46.370Z,19.68
2018-05-15T10:59:46.406Z,19.69
2018-05-15T11:00:46.404Z,19.82
2018-05-15T11:01:46.385Z,19.86
2018-05-15T11:02:46.561Z,19.96
2018-05-15T11:03:46.434Z,19.96
2018-05-15T11:04:46.581Z,20.03
2018-05-15T11:05:46.455Z,20.05
2018-05-15T11:06:46.451Z,20.1
2018-05-15T11:07:46.436Z,20.15
2018-05-15T11:08:46.825Z,20.18
2018-05-15T11:09:46.457Z,20.22
2018-05-15T11:10:46.446Z,20.29
2018-05-15T11:11:46.439Z,20.25
2018-05-15T11:12:46.944Z,20.29
2018-05-15T11:13:46.374Z,20.31
2018-05-15T11:14:46.426Z,20.33
2018-05-15T11:15:46.431Z,20.36
2018-05-15T11:16:46.513Z,20.29
2018-05-15T11:17:46.471Z,20.25
2018-05-15T11:18:47.091Z,20.3
2018-05-15T11:19:46.427Z,20.29
2018-05-15T11:20:46.393Z,20.31
2018-05-15T11:21:46.396Z,20.38
2018-05-15T11:22:46.522Z,20.53
2018-05-15T11:23:46.444Z,20.57
2018-05-15T11:24:46.618Z,20.69
2018-05-15T11:25:46.419Z,20.87
2018-05-15T11:26:46.397Z,20.94
2018-05-15T11:27:46.448Z,20.99
2018-05-15T11:28:46.474Z,21.04
2018-05-15T11:29:46.461Z,21.07
2018-05-15T11:30:46.447Z,21.1
2018-05-15T11:31:46.567Z,21.1
2018-05-15T11:32:46.531Z,21.08
2018-05-15T11:33:46.469Z,21.08
2018-05-15T11:34:46.569Z,21.12
2018-05-15T11:35:48.252Z,21.09
2018-05-15T11:36:46.434Z,21.16
2018-05-15T11:37:46.628Z,21.15
2018-05-15T11:38:46.447Z,21.1
2018-05-15T11:39:46.412Z,21.21
2018-05-15T11:40:47.146Z,21.25
2018-05-15T11:41:47.068Z,21.31
2018-05-15T11:42:46.547Z,21.35
2018-05-15T11:43:46.394Z,21.42
2018-05-15T11:44:46.500Z,21.47
2018-05-15T11:45:46.471Z,21.53
2018-05-15T11:46:46.390Z,21.6
2018-05-15T11:47:51.243Z,21.65
2018-05-15T11:48:54.872Z,21.7
2018-05-15T11:49:56.424Z,21.65
2018-05-15T11:50:55.415Z,21.64
2018-05-15T11:51:57.460Z,21.61
2018-05-15T11:52:54.667Z,21.61
2018-05-15T11:53:46.868Z,21.64
2018-05-15T11:54:46.519Z,21.6
2018-05-15T11:55:46.601Z,21.61
2018-05-15T11:56:46.574Z,21.66
2018-05-15T11:57:46.827Z,21.55
2018-05-15T11:58:46.442Z,21.53
2018-05-15T11:59:47.433Z,21.51
2018-05-15T12:00:46.548Z,21.47
2018-05-15T12:01:46.440Z,21.44
2018-05-15T12:02:47.465Z,21.41
2018-05-15T12:03:47.071Z,21.49
2018-05-15T12:04:46.391Z,21.63
2018-05-15T12:05:46.445Z,21.76
2018-05-15T12:06:46.467Z,21.81
2018-05-15T12:07:46.443Z,21.72
2018-05-15T12:08:46.452Z,21.69
2018-05-15T12:09:46.434Z,21.84
2018-05-15T12:10:46.438Z,21.93
2018-05-15T12:11:46.479Z,21.97
2018-05-15T12:12:46.797Z,22.02
2018-05-15T12:13:46.441Z,22.08
2018-05-15T12:14:46.497Z,22.17
2018-05-15T12:15:46.575Z,22.18
2018-05-15T12:16:46.444Z,22.31
2018-05-15T12:17:46.406Z,22.35
2018-05-15T12:18:46.424Z,22.36
2018-05-15T12:19:52.304Z,22.41
2018-05-15T12:20:46.469Z,22.4
2018-05-15T12:21:46.414Z,22.4
2018-05-15T12:22:46.461Z,22.41
2018-05-15T12:23:46.463Z,22.42
2018-05-15T12:24:46.535Z,22.51
2018-05-15T12:25:46.486Z,22.58
2018-05-15T12:26:46.546Z,22.46
2018-05-15T12:27:46.455Z,22.42
2018-05-15T12:28:46.518Z,22.5
2018-05-15T12:29:46.939Z,22.47
2018-05-15T12:30:46.530Z,22.41
2018-05-15T12:31:46.515Z,22.33
2018-05-15T12:32:46.527Z,22.3
2018-05-15T12:33:46.463Z,22.25
2018-05-15T12:34:46.462Z,22.18
2018-05-15T12:35:47.056Z,22.17
2018-05-15T12:36:46.481Z,22.18
2018-05-15T12:37:46.461Z,22.22
2018-05-15T12:38:46.469Z,22.25
2018-05-15T12:39:46.469Z,22.33
2018-05-15T12:40:46.510Z,22.41
2018-05-15T12:41:48.216Z,22.42
2018-05-15T12:42:46.455Z,22.41
2018-05-15T12:43:46.443Z,22.34
2018-05-15T12:44:46.509Z,22.29
2018-05-15T12:45:46.589Z,22.25
2018-05-15T12:46:47.218Z,22.22
2018-05-15T12:47:47.038Z,22.17
2018-05-15T12:48:47.381Z,22.21
2018-05-15T12:49:46.472Z,22.18
2018-05-15T12:50:46.453Z,22.15
2018-05-15T12:51:47.008Z,22.08
2018-05-15T12:52:46.464Z,22.03
2018-05-15T12:53:46.502Z,21.94
2018-05-15T12:54:46.515Z,21.9
2018-05-15T12:55:46.445Z,21.89